sensor_id;sensor_type;location;lat;lon;timestamp;pressure;altitude;pressure_sealevel;temperature;humidity
42297;BME280;28985;47.456;19.016;2022-10-31T00:01:17;101023.16;;;11.26;100.00
42297;BME280;28985;47.456;19.016;2022-10-31T00:03:44;101021.44;;;11.25;100.00
42297;BME280;28985;47.456;19.016;2022-10-31T00:06:11;101020.97;;;11.20;100.00
42297;BME280;28985;47.456;19.016;2022-10-31T00:08:37;101020.97;;;11.20;100.00
42297;BME280;28985;47.456;19.016;2022-10-31T00:11:08;101015.09;;;11.14;100.00
42297;BME280;28985;47.456;19.016;2022-10-31T00:13:35;101013.38;;;11.13;100.00
42297;BME280;28985;47.456;19.016;2022-10-31T00:16:01;101009.59;;;11.16;100.00
42297;BME280;28985;47.456;19.016;2022-10-31T00:18:28;101014.59;;;11.09;100.00
42297;BME280;28985;47.456;19.016;2022-10-31T00:21:02;101010.22;;;11.08;100.00
42297;BME280;28985;47.456;19.016;2022-10-31T00:23:28;101014.28;;;11.03;100.00
42297;BME280;28985;47.456;19.016;2022-10-31T00:26:00;101014.38;;;11.01;100.00
42297;BME280;28985;47.456;19.016;2022-10-31T00:28:28;101007.78;;;11.05;100.00
42297;BME280;28985;47.456;19.016;2022-10-31T00:31:04;101006.78;;;11.06;100.00
42297;BME280;28985;47.456;19.016;2022-10-31T00:33:34;101004.09;;;11.06;100.00
42297;BME280;28985;47.456;19.016;2022-10-31T00:36:01;100999.53;;;11.07;100.00
42297;BME280;28985;47.456;19.016;2022-10-31T00:38:27;101002.50;;;11.04;100.00
42297;BME280;28985;47.456;19.016;2022-10-31T00:40:54;101006.41;;;10.99;100.00
42297;BME280;28985;47.456;19.016;2022-10-31T00:43:20;100999.06;;;11.01;100.00
42297;BME280;28985;47.456;19.016;2022-10-31T00:45:47;101003.50;;;11.03;100.00
42297;BME280;28985;47.456;19.016;2022-10-31T00:48:13;101005.56;;;10.99;100.00
42297;BME280;28985;47.456;19.016;2022-10-31T00:50:40;100995.75;;;10.98;100.00
42297;BME280;28985;47.456;19.016;2022-10-31T00:53:07;100992.09;;;10.99;100.00
42297;BME280;28985;47.456;19.016;2022-10-31T00:55:34;101009.72;;;11.03;100.00
42297;BME280;28985;47.456;19.016;2022-10-31T00:58:00;101006.31;;;11.01;100.00
42297;BME280;28985;47.456;19.016;2022-10-31T01:00:27;100998.59;;;10.96;100.00
42297;BME280;28985;47.456;19.016;2022-10-31T01:02:54;101002.13;;;10.97;100.00
42297;BME280;28985;47.456;19.016;2022-10-31T01:05:21;101000.53;;;10.94;100.00
42297;BME280;28985;47.456;19.016;2022-10-31T01:07:47;101001.78;;;10.90;100.00
42297;BME280;28985;47.456;19.016;2022-10-31T01:10:14;101002.03;;;10.87;100.00
42297;BME280;28985;47.456;19.016;2022-10-31T01:12:43;101003.38;;;10.81;100.00
42297;BME280;28985;47.456;19.016;2022-10-31T01:15:12;101008.41;;;10.74;100.00
42297;BME280;28985;47.456;19.016;2022-10-31T01:17:40;101000.44;;;10.73;100.00
42297;BME280;28985;47.456;19.016;2022-10-31T01:20:08;100997.38;;;10.78;100.00
42297;BME280;28985;47.456;19.016;2022-10-31T01:22:34;100991.03;;;10.79;100.00
42297;BME280;28985;47.456;19.016;2022-10-31T01:25:01;100994.94;;;10.74;100.00
42297;BME280;28985;47.456;19.016;2022-10-31T01:27:28;100996.03;;;10.72;100.00
42297;BME280;28985;47.456;19.016;2022-10-31T01:29:54;100996.28;;;10.69;100.00
42297;BME280;28985;47.456;19.016;2022-10-31T01:32:21;100990.53;;;10.73;100.00
42297;BME280;28985;47.456;19.016;2022-10-31T01:34:47;100992.13;;;10.76;100.00
42297;BME280;28985;47.456;19.016;2022-10-31T01:37:14;100988.47;;;10.77;100.00
42297;BME280;28985;47.456;19.016;2022-10-31T01:39:40;100978.66;;;10.76;100.00
42297;BME280;28985;47.456;19.016;2022-10-31T01:42:11;100986.59;;;10.78;100.00
42297;BME280;28985;47.456;19.016;2022-10-31T01:47:16;100980.38;;;10.77;100.00
42297;BME280;28985;47.456;19.016;2022-10-31T01:49:53;100979.28;;;10.80;100.00
42297;BME280;28985;47.456;19.016;2022-10-31T01:52:25;100985.75;;;10.77;100.00
42297;BME280;28985;47.456;19.016;2022-10-31T01:55:00;100988.34;;;10.79;100.00
42297;BME280;28985;47.456;19.016;2022-10-31T01:57:28;100985.88;;;10.76;100.00
42297;BME280;28985;47.456;19.016;2022-10-31T02:00:00;100982.81;;;10.80;100.00
42297;BME280;28985;47.456;19.016;2022-10-31T02:02:29;100979.00;;;10.83;100.00
42297;BME280;28985;47.456;19.016;2022-10-31T02:05:00;100970.94;;;10.83;100.00
42297;BME280;28985;47.456;19.016;2022-10-31T02:07:38;100984.19;;;10.74;100.00
42297;BME280;28985;47.456;19.016;2022-10-31T02:10:06;100971.53;;;10.75;100.00
42297;BME280;28985;47.456;19.016;2022-10-31T02:12:34;100979.63;;;10.75;100.00
42297;BME280;28985;47.456;19.016;2022-10-31T02:15:03;100981.47;;;10.74;100.00
42297;BME280;28985;47.456;19.016;2022-10-31T02:17:30;100972.03;;;10.69;100.00
42297;BME280;28985;47.456;19.016;2022-10-31T02:20:07;100972.69;;;10.61;100.00
42297;BME280;28985;47.456;19.016;2022-10-31T02:33:53;100972.31;;;10.54;100.00
42297;BME280;28985;47.456;19.016;2022-10-31T02:36:30;100973.41;;;10.52;100.00
42297;BME280;28985;47.456;19.016;2022-10-31T02:44:32;100985.03;;;10.52;100.00
42297;BME280;28985;47.456;19.016;2022-10-31T02:47:06;100982.84;;;10.46;100.00
42297;BME280;28985;47.456;19.016;2022-10-31T02:52:28;100982.69;;;10.47;100.00
42297;BME280;28985;47.456;19.016;2022-10-31T02:54:55;100991.88;;;10.45;100.00
42297;BME280;28985;47.456;19.016;2022-10-31T02:57:27;100988.47;;;10.43;100.00
42297;BME280;28985;47.456;19.016;2022-10-31T03:00:00;100992.22;;;10.40;100.00
42297;BME280;28985;47.456;19.016;2022-10-31T03:02:51;100989.19;;;10.45;100.00
42297;BME280;28985;47.456;19.016;2022-10-31T03:06:00;100993.25;;;10.51;100.00
42297;BME280;28985;47.456;19.016;2022-10-31T03:08:41;100987.25;;;10.47;100.00
42297;BME280;28985;47.456;19.016;2022-10-31T03:11:10;100982.59;;;10.49;100.00
42297;BME280;28985;47.456;19.016;2022-10-31T03:13:59;100979.78;;;10.51;100.00
42297;BME280;28985;47.456;19.016;2022-10-31T03:16:36;100987.75;;;10.52;100.00
42297;BME280;28985;47.456;19.016;2022-10-31T03:19:11;100990.44;;;10.52;100.00
42297;BME280;28985;47.456;19.016;2022-10-31T03:21:54;100991.03;;;10.56;100.00
42297;BME280;28985;47.456;19.016;2022-10-31T03:24:26;100991.88;;;10.56;100.00
42297;BME280;28985;47.456;19.016;2022-10-31T03:26:55;100995.31;;;10.58;100.00
42297;BME280;28985;47.456;19.016;2022-10-31T03:29:26;100997.03;;;10.59;100.00
42297;BME280;28985;47.456;19.016;2022-10-31T03:31:59;100998.13;;;10.57;100.00
42297;BME280;28985;47.456;19.016;2022-10-31T03:34:28;100999.47;;;10.51;100.00
42297;BME280;28985;47.456;19.016;2022-10-31T03:36:59;100996.66;;;10.53;100.00
42297;BME280;28985;47.456;19.016;2022-10-31T03:39:28;100998.75;;;10.60;100.00
42297;BME280;28985;47.456;19.016;2022-10-31T03:42:09;100995.81;;;10.64;100.00
42297;BME280;28985;47.456;19.016;2022-10-31T03:44:39;100997.38;;;10.66;100.00
42297;BME280;28985;47.456;19.016;2022-10-31T03:47:08;101000.06;;;10.66;100.00
42297;BME280;28985;47.456;19.016;2022-10-31T03:49:35;100996.53;;;10.66;100.00
42297;BME280;28985;47.456;19.016;2022-10-31T03:58:02;101006.81;;;10.60;100.00
42297;BME280;28985;47.456;19.016;2022-10-31T04:00:32;101005.47;;;10.55;100.00
42297;BME280;28985;47.456;19.016;2022-10-31T04:03:10;101007.53;;;10.51;100.00
42297;BME280;28985;47.456;19.016;2022-10-31T04:05:40;101007.69;;;10.50;100.00
42297;BME280;28985;47.456;19.016;2022-10-31T04:08:13;101010.22;;;10.51;100.00
42297;BME280;28985;47.456;19.016;2022-10-31T04:10:43;101010.22;;;10.51;100.00
42297;BME280;28985;47.456;19.016;2022-10-31T04:13:14;101002.53;;;10.46;100.00
42297;BME280;28985;47.456;19.016;2022-10-31T04:15:43;101005.09;;;10.48;100.00
42297;BME280;28985;47.456;19.016;2022-10-31T04:18:11;101010.38;;;10.50;100.00
42297;BME280;28985;47.456;19.016;2022-10-31T04:20:40;101011.31;;;10.48;100.00
42297;BME280;28985;47.456;19.016;2022-10-31T04:25:43;101011.81;;;10.54;100.00
42297;BME280;28985;47.456;19.016;2022-10-31T04:28:09;101016.09;;;10.56;100.00
42297;BME280;28985;47.456;19.016;2022-10-31T04:30:36;101019.19;;;10.63;100.00
42297;BME280;28985;47.456;19.016;2022-10-31T04:33:02;101018.31;;;10.63;100.00
42297;BME280;28985;47.456;19.016;2022-10-31T04:35:29;101021.25;;;10.59;100.00
42297;BME280;28985;47.456;19.016;2022-10-31T04:37:55;101025.66;;;10.60;100.00
42297;BME280;28985;47.456;19.016;2022-10-31T04:40:22;101029.34;;;10.59;100.00
42297;BME280;28985;47.456;19.016;2022-10-31T04:42:48;101025.88;;;10.57;100.00
42297;BME280;28985;47.456;19.016;2022-10-31T04:45:15;101035.09;;;10.55;100.00
42297;BME280;28985;47.456;19.016;2022-10-31T04:47:46;101042.31;;;10.54;100.00
42297;BME280;28985;47.456;19.016;2022-10-31T04:50:13;101034.34;;;10.53;100.00
42297;BME280;28985;47.456;19.016;2022-10-31T04:52:43;101035.44;;;10.50;100.00
42297;BME280;28985;47.456;19.016;2022-10-31T04:55:11;101029.44;;;10.46;100.00
42297;BME280;28985;47.456;19.016;2022-10-31T04:57:42;101034.00;;;10.46;100.00
42297;BME280;28985;47.456;19.016;2022-10-31T05:00:09;101031.41;;;10.44;100.00
42297;BME280;28985;47.456;19.016;2022-10-31T05:02:47;101035.91;;;10.44;100.00
42297;BME280;28985;47.456;19.016;2022-10-31T05:05:15;101037.97;;;10.40;100.00
42297;BME280;28985;47.456;19.016;2022-10-31T05:07:43;101028.91;;;10.41;100.00
42297;BME280;28985;47.456;19.016;2022-10-31T05:10:13;101036.53;;;10.47;100.00
42297;BME280;28985;47.456;19.016;2022-10-31T05:12:48;101039.00;;;10.51;100.00
42297;BME280;28985;47.456;19.016;2022-10-31T05:15:16;101035.94;;;10.55;100.00
42297;BME280;28985;47.456;19.016;2022-10-31T05:17:43;101038.50;;;10.57;100.00
42297;BME280;28985;47.456;19.016;2022-10-31T05:20:11;101044.63;;;10.59;100.00
42297;BME280;28985;47.456;19.016;2022-10-31T05:22:42;101041.22;;;10.57;100.00
42297;BME280;28985;47.456;19.016;2022-10-31T05:25:10;101024.69;;;10.61;100.00
42297;BME280;28985;47.456;19.016;2022-10-31T05:27:41;101036.44;;;10.60;100.00
42297;BME280;28985;47.456;19.016;2022-10-31T05:30:09;101033.13;;;10.57;100.00
42297;BME280;28985;47.456;19.016;2022-10-31T05:32:44;101040.84;;;10.61;100.00
42297;BME280;28985;47.456;19.016;2022-10-31T05:35:13;101024.19;;;10.68;100.00
42297;BME280;28985;47.456;19.016;2022-10-31T05:37:40;101036.06;;;10.65;100.00
42297;BME280;28985;47.456;19.016;2022-10-31T05:40:08;101025.44;;;10.64;100.00
42297;BME280;28985;47.456;19.016;2022-10-31T05:42:37;101037.03;;;10.64;100.00
42297;BME280;28985;47.456;19.016;2022-10-31T05:45:04;101059.31;;;10.66;100.00
42297;BME280;28985;47.456;19.016;2022-10-31T05:47:31;101058.22;;;10.69;100.00
42297;BME280;28985;47.456;19.016;2022-10-31T05:49:58;101067.28;;;10.68;100.00
42297;BME280;28985;47.456;19.016;2022-10-31T05:52:24;101054.91;;;10.65;100.00
42297;BME280;28985;47.456;19.016;2022-10-31T05:54:51;101051.50;;;10.63;100.00
42297;BME280;28985;47.456;19.016;2022-10-31T05:57:17;101055.06;;;10.64;100.00
42297;BME280;28985;47.456;19.016;2022-10-31T05:59:44;101057.50;;;10.67;100.00
42297;BME280;28985;47.456;19.016;2022-10-31T06:02:10;101066.56;;;10.66;100.00
42297;BME280;28985;47.456;19.016;2022-10-31T06:04:37;101063.00;;;10.65;100.00
42297;BME280;28985;47.456;19.016;2022-10-31T06:07:03;101061.78;;;10.69;100.00
42297;BME280;28985;47.456;19.016;2022-10-31T06:09:30;101053.59;;;10.71;100.00
42297;BME280;28985;47.456;19.016;2022-10-31T06:11:56;101046.72;;;10.67;100.00
42297;BME280;28985;47.456;19.016;2022-10-31T06:14:23;101059.06;;;10.58;100.00
42297;BME280;28985;47.456;19.016;2022-10-31T06:16:49;101058.09;;;10.59;100.00
42297;BME280;28985;47.456;19.016;2022-10-31T06:19:16;101064.94;;;10.63;100.00
42297;BME280;28985;47.456;19.016;2022-10-31T06:21:42;101066.44;;;10.67;100.00
42297;BME280;28985;47.456;19.016;2022-10-31T06:24:09;101051.00;;;10.69;100.00
42297;BME280;28985;47.456;19.016;2022-10-31T06:26:35;101045.63;;;10.69;100.00
42297;BME280;28985;47.456;19.016;2022-10-31T06:29:02;101059.56;;;10.63;100.00
42297;BME280;28985;47.456;19.016;2022-10-31T06:31:29;101057.50;;;10.67;100.00
42297;BME280;28985;47.456;19.016;2022-10-31T06:33:56;101053.59;;;10.71;100.00
42297;BME280;28985;47.456;19.016;2022-10-31T06:36:23;101069.84;;;10.69;100.00
42297;BME280;28985;47.456;19.016;2022-10-31T06:38:49;101062.75;;;10.68;100.00
42297;BME280;28985;47.456;19.016;2022-10-31T06:41:16;101070.56;;;10.71;100.00
42297;BME280;28985;47.456;19.016;2022-10-31T06:43:46;101074.25;;;10.70;100.00
42297;BME280;28985;47.456;19.016;2022-10-31T06:46:13;101065.56;;;10.78;100.00
42297;BME280;28985;47.456;19.016;2022-10-31T06:48:41;101072.19;;;10.85;100.00
42297;BME280;28985;47.456;19.016;2022-10-31T06:51:08;101089.22;;;10.86;100.00
42297;BME280;28985;47.456;19.016;2022-10-31T06:53:35;101080.03;;;10.88;100.00
42297;BME280;28985;47.456;19.016;2022-10-31T06:56:01;101077.84;;;10.94;100.00
42297;BME280;28985;47.456;19.016;2022-10-31T06:58:28;101080.53;;;10.94;100.00
42297;BME280;28985;47.456;19.016;2022-10-31T07:00:54;101076.72;;;10.96;100.00
42297;BME280;28985;47.456;19.016;2022-10-31T07:03:21;101076.72;;;10.96;100.00
42297;BME280;28985;47.456;19.016;2022-10-31T07:05:48;101086.25;;;11.00;100.00
42297;BME280;28985;47.456;19.016;2022-10-31T07:08:14;101087.00;;;11.03;100.00
42297;BME280;28985;47.456;19.016;2022-10-31T07:10:42;101092.88;;;11.08;100.00
42297;BME280;28985;47.456;19.016;2022-10-31T07:13:13;101087.47;;;11.08;100.00
42297;BME280;28985;47.456;19.016;2022-10-31T07:15:42;101092.41;;;11.14;100.00
42297;BME280;28985;47.456;19.016;2022-10-31T07:18:10;101097.16;;;11.10;100.00
42297;BME280;28985;47.456;19.016;2022-10-31T07:20:37;101097.16;;;11.10;100.00
42297;BME280;28985;47.456;19.016;2022-10-31T07:23:03;101093.34;;;11.13;100.00
42297;BME280;28985;47.456;19.016;2022-10-31T07:25:31;101096.53;;;11.18;100.00
42297;BME280;28985;47.456;19.016;2022-10-31T07:27:57;101099.59;;;11.25;100.00
42297;BME280;28985;47.456;19.016;2022-10-31T07:30:24;101095.19;;;11.24;100.00
42297;BME280;28985;47.456;19.016;2022-10-31T07:32:51;101091.41;;;11.15;100.00
42297;BME280;28985;47.456;19.016;2022-10-31T07:35:28;101088.47;;;11.07;100.00
42297;BME280;28985;47.456;19.016;2022-10-31T07:37:55;101093.25;;;11.03;100.00
42297;BME280;28985;47.456;19.016;2022-10-31T07:40:23;101102.31;;;11.02;100.00
42297;BME280;28985;47.456;19.016;2022-10-31T07:42:52;101099.13;;;11.08;100.00
42297;BME280;28985;47.456;19.016;2022-10-31T07:45:20;101092.03;;;11.07;100.00
42297;BME280;28985;47.456;19.016;2022-10-31T07:47:48;101094.47;;;11.10;100.00
42297;BME280;28985;47.456;19.016;2022-10-31T07:50:18;101095.94;;;11.14;100.00
42297;BME280;28985;47.456;19.016;2022-10-31T07:52:45;101093.13;;;11.16;100.00
42297;BME280;28985;47.456;19.016;2022-10-31T07:55:12;101095.69;;;11.18;100.00
42297;BME280;28985;47.456;19.016;2022-10-31T07:57:39;101089.44;;;11.17;100.00
42297;BME280;28985;47.456;19.016;2022-10-31T08:00:08;101092.03;;;11.19;100.00
42297;BME280;28985;47.456;19.016;2022-10-31T08:02:35;101092.75;;;11.21;100.00
42297;BME280;28985;47.456;19.016;2022-10-31T08:05:02;101093.34;;;11.24;100.00
42297;BME280;28985;47.456;19.016;2022-10-31T08:07:28;101093.13;;;11.27;100.00
42297;BME280;28985;47.456;19.016;2022-10-31T08:09:56;101098.13;;;11.32;100.00
42297;BME280;28985;47.456;19.016;2022-10-31T08:12:22;101105.97;;;11.35;100.00
42297;BME280;28985;47.456;19.016;2022-10-31T08:14:49;101093.94;;;11.28;100.00
42297;BME280;28985;47.456;19.016;2022-10-31T08:17:16;101103.91;;;11.16;100.00
42297;BME280;28985;47.456;19.016;2022-10-31T08:19:42;101109.19;;;11.18;100.00
42297;BME280;28985;47.456;19.016;2022-10-31T08:22:09;101115.19;;;11.21;100.00
42297;BME280;28985;47.456;19.016;2022-10-31T08:24:35;101107.19;;;11.20;100.00
42297;BME280;28985;47.456;19.016;2022-10-31T08:27:02;101110.50;;;11.23;100.00
42297;BME280;28985;47.456;19.016;2022-10-31T08:29:28;101101.81;;;11.20;100.00
42297;BME280;28985;47.456;19.016;2022-10-31T08:31:57;101108.06;;;11.20;100.00
42297;BME280;28985;47.456;19.016;2022-10-31T08:34:24;101102.03;;;11.17;100.00
42297;BME280;28985;47.456;19.016;2022-10-31T08:36:51;101105.38;;;11.20;100.00
42297;BME280;28985;47.456;19.016;2022-10-31T08:39:18;101102.78;;;11.30;100.00
42297;BME280;28985;47.456;19.016;2022-10-31T08:41:44;101103.13;;;11.37;100.00
42297;BME280;28985;47.456;19.016;2022-10-31T08:44:11;101105.59;;;11.40;100.00
42297;BME280;28985;47.456;19.016;2022-10-31T08:46:38;101102.03;;;11.39;100.00
42297;BME280;28985;47.456;19.016;2022-10-31T08:49:04;101099.34;;;11.39;100.00
42297;BME280;28985;47.456;19.016;2022-10-31T08:51:31;101105.00;;;11.36;100.00
42297;BME280;28985;47.456;19.016;2022-10-31T08:53:57;101111.38;;;11.35;100.00
42297;BME280;28985;47.456;19.016;2022-10-31T08:56:24;101113.91;;;11.37;100.00
42297;BME280;28985;47.456;19.016;2022-10-31T08:58:52;101106.47;;;11.40;100.00
42297;BME280;28985;47.456;19.016;2022-10-31T09:01:19;101110.72;;;11.43;100.00
42297;BME280;28985;47.456;19.016;2022-10-31T09:03:45;101118.09;;;11.41;100.00
42297;BME280;28985;47.456;19.016;2022-10-31T09:06:12;101111.59;;;11.44;100.00
42297;BME280;28985;47.456;19.016;2022-10-31T09:08:39;101109.00;;;11.42;100.00
42297;BME280;28985;47.456;19.016;2022-10-31T09:11:05;101114.28;;;11.44;100.00
42297;BME280;28985;47.456;19.016;2022-10-31T09:13:33;101112.31;;;11.46;100.00
42297;BME280;28985;47.456;19.016;2022-10-31T09:16:06;101114.66;;;11.50;100.00
42297;BME280;28985;47.456;19.016;2022-10-31T09:18:33;101117.06;;;11.53;100.00
42297;BME280;28985;47.456;19.016;2022-10-31T09:21:00;101113.41;;;11.54;100.00
42297;BME280;28985;47.456;19.016;2022-10-31T09:23:28;101121.25;;;11.58;100.00
42297;BME280;28985;47.456;19.016;2022-10-31T09:25:54;101118.44;;;11.59;100.00
42297;BME280;28985;47.456;19.016;2022-10-31T09:28:23;101123.94;;;11.58;100.00
42297;BME280;28985;47.456;19.016;2022-10-31T09:30:51;101118.56;;;11.58;100.00
42297;BME280;28985;47.456;19.016;2022-10-31T09:33:18;101124.78;;;11.58;100.00
42297;BME280;28985;47.456;19.016;2022-10-31T09:35:45;101132.88;;;11.58;100.00
42297;BME280;28985;47.456;19.016;2022-10-31T09:38:17;101122.25;;;11.57;100.00
42297;BME280;28985;47.456;19.016;2022-10-31T09:40:55;101124.78;;;11.58;100.00
42297;BME280;28985;47.456;19.016;2022-10-31T09:46:08;101127.47;;;11.69;100.00
42297;BME280;28985;47.456;19.016;2022-10-31T09:51:32;101126.75;;;11.67;100.00
42297;BME280;28985;47.456;19.016;2022-10-31T09:54:09;101125.50;;;11.72;100.00
42297;BME280;28985;47.456;19.016;2022-10-31T09:56:37;101124.75;;;11.69;100.00
42297;BME280;28985;47.456;19.016;2022-10-31T10:01:55;101125.41;;;11.62;100.00
42297;BME280;28985;47.456;19.016;2022-10-31T10:04:46;101122.09;;;11.58;100.00
42297;BME280;28985;47.456;19.016;2022-10-31T10:07:23;101118.28;;;11.61;100.00
42297;BME280;28985;47.456;19.016;2022-10-31T10:09:53;101118.66;;;11.67;100.00
42297;BME280;28985;47.456;19.016;2022-10-31T10:18:21;101123.06;;;11.68;100.00
42297;BME280;28985;47.456;19.016;2022-10-31T10:21:16;101119.25;;;11.71;100.00
42297;BME280;28985;47.456;19.016;2022-10-31T10:24:00;101111.28;;;11.69;100.00
42297;BME280;28985;47.456;19.016;2022-10-31T10:26:36;101110.19;;;11.61;100.00
42297;BME280;28985;47.456;19.016;2022-10-31T10:31:49;101107.75;;;11.69;100.00
42297;BME280;28985;47.456;19.016;2022-10-31T10:34:22;101098.25;;;11.75;100.00
42297;BME280;28985;47.456;19.016;2022-10-31T10:36:58;101098.88;;;11.78;100.00
42297;BME280;28985;47.456;19.016;2022-10-31T10:39:41;101098.63;;;11.81;100.00
42297;BME280;28985;47.456;19.016;2022-10-31T10:42:13;101101.31;;;11.81;100.00
42297;BME280;28985;47.456;19.016;2022-10-31T10:45:00;101097.75;;;11.81;100.00
42297;BME280;28985;47.456;19.016;2022-10-31T10:47:59;101095.22;;;11.79;100.00
42297;BME280;28985;47.456;19.016;2022-10-31T10:50:35;101095.94;;;11.81;100.00
42297;BME280;28985;47.456;19.016;2022-10-31T10:58:30;101097.72;;;11.92;100.00
42297;BME280;28985;47.456;19.016;2022-10-31T11:00:57;101096.88;;;11.92;100.00
42297;BME280;28985;47.456;19.016;2022-10-31T11:03:24;101098.09;;;11.88;100.00
42297;BME280;28985;47.456;19.016;2022-10-31T11:05:54;101097.03;;;11.79;100.00
42297;BME280;28985;47.456;19.016;2022-10-31T11:08:32;101093.34;;;11.80;100.00
42297;BME280;28985;47.456;19.016;2022-10-31T11:11:24;101094.94;;;11.82;100.00
42297;BME280;28985;47.456;19.016;2022-10-31T11:14:03;101092.84;;;11.86;100.00
42297;BME280;28985;47.456;19.016;2022-10-31T11:21:34;101090.31;;;11.73;100.00
42297;BME280;28985;47.456;19.016;2022-10-31T11:26:38;101092.75;;;11.76;100.00
42297;BME280;28985;47.456;19.016;2022-10-31T11:29:15;101086.25;;;11.79;100.00
42297;BME280;28985;47.456;19.016;2022-10-31T11:31:44;101083.44;;;11.80;100.00
42297;BME280;28985;47.456;19.016;2022-10-31T11:34:37;101078.50;;;11.86;100.00
42297;BME280;28985;47.456;19.016;2022-10-31T11:37:13;101082.84;;;11.77;100.00
42297;BME280;28985;47.456;19.016;2022-10-31T11:39:45;101072.75;;;11.79;100.00
42297;BME280;28985;47.456;19.016;2022-10-31T11:42:21;101076.06;;;11.82;100.00
42297;BME280;28985;47.456;19.016;2022-10-31T11:44:49;101079.34;;;11.86;100.00
42297;BME280;28985;47.456;19.016;2022-10-31T11:47:23;101074.22;;;11.83;100.00
42297;BME280;28985;47.456;19.016;2022-10-31T11:49:51;101068.47;;;11.76;100.00
42297;BME280;28985;47.456;19.016;2022-10-31T11:52:25;101078.66;;;11.73;100.00
42297;BME280;28985;47.456;19.016;2022-10-31T11:54:58;101079.66;;;11.72;100.00
42297;BME280;28985;47.456;19.016;2022-10-31T11:59:54;101074.25;;;11.72;100.00
42297;BME280;28985;47.456;19.016;2022-10-31T12:02:21;101079.66;;;11.72;100.00
42297;BME280;28985;47.456;19.016;2022-10-31T12:04:58;101072.41;;;11.72;100.00
42297;BME280;28985;47.456;19.016;2022-10-31T12:07:27;101073.88;;;11.76;100.00
42297;BME280;28985;47.456;19.016;2022-10-31T12:09:54;101078.88;;;11.81;100.00
42297;BME280;28985;47.456;19.016;2022-10-31T12:13:08;101079.16;;;11.78;100.00
42297;BME280;28985;47.456;19.016;2022-10-31T12:15:33;101072.03;;;11.77;100.00
42297;BME280;28985;47.456;19.016;2022-10-31T12:20:44;101078.53;;;11.74;100.00
42297;BME280;28985;47.456;19.016;2022-10-31T12:26:06;101076.84;;;11.73;100.00
42297;BME280;28985;47.456;19.016;2022-10-31T12:34:46;101072.03;;;11.77;100.00
42297;BME280;28985;47.456;19.016;2022-10-31T12:45:56;101058.69;;;11.75;100.00
42297;BME280;28985;47.456;19.016;2022-10-31T12:48:45;101066.88;;;11.74;100.00
42297;BME280;28985;47.456;19.016;2022-10-31T12:51:35;101060.38;;;11.76;100.00
42297;BME280;28985;47.456;19.016;2022-10-31T13:01:59;101063.44;;;11.83;100.00
42297;BME280;28985;47.456;19.016;2022-10-31T13:07:04;101055.66;;;11.90;100.00
42297;BME280;28985;47.456;19.016;2022-10-31T13:09:42;101052.63;;;11.83;100.00
42297;BME280;28985;47.456;19.016;2022-10-31T13:12:15;101058.16;;;11.81;100.00
42297;BME280;28985;47.456;19.016;2022-10-31T13:14:46;101052.41;;;11.75;100.00
42297;BME280;28985;47.456;19.016;2022-10-31T13:17:24;101060.25;;;11.78;100.00
42297;BME280;28985;47.456;19.016;2022-10-31T13:19:55;101055.09;;;11.75;100.00
42297;BME280;28985;47.456;19.016;2022-10-31T13:22:31;101055.97;;;11.75;100.00
42297;BME280;28985;47.456;19.016;2022-10-31T13:27:30;101056.56;;;11.79;100.00
42297;BME280;28985;47.456;19.016;2022-10-31T13:30:04;101059.50;;;11.76;100.00
42297;BME280;28985;47.456;19.016;2022-10-31T13:32:42;101060.66;;;11.73;100.00
42297;BME280;28985;47.456;19.016;2022-10-31T13:35:18;101059.06;;;11.71;100.00
42297;BME280;28985;47.456;19.016;2022-10-31T13:37:48;101054.50;;;11.71;100.00
42297;BME280;28985;47.456;19.016;2022-10-31T13:40:42;101054.63;;;11.69;100.00
42297;BME280;28985;47.456;19.016;2022-10-31T13:43:26;101056.72;;;11.66;100.00
42297;BME280;28985;47.456;19.016;2022-10-31T13:45:56;101057.34;;;11.69;100.00
42297;BME280;28985;47.456;19.016;2022-10-31T13:48:49;101054.63;;;11.69;100.00
42297;BME280;28985;47.456;19.016;2022-10-31T13:51:25;101049.25;;;11.69;100.00
42297;BME280;28985;47.456;19.016;2022-10-31T13:56:23;101041.03;;;11.71;100.00
42297;BME280;28985;47.456;19.016;2022-10-31T14:01:26;101054.28;;;11.74;100.00
42297;BME280;28985;47.456;19.016;2022-10-31T14:04:01;101052.41;;;11.75;100.00
42297;BME280;28985;47.456;19.016;2022-10-31T14:06:52;101054.50;;;11.71;100.00
42297;BME280;28985;47.456;19.016;2022-10-31T14:09:26;101049.38;;;11.68;100.00
42297;BME280;28985;47.456;19.016;2022-10-31T14:11:55;101044.25;;;11.65;100.00
42297;BME280;28985;47.456;19.016;2022-10-31T14:14:29;101048.91;;;11.63;100.00
42297;BME280;28985;47.456;19.016;2022-10-31T14:16:57;101055.91;;;11.65;100.00
42297;BME280;28985;47.456;19.016;2022-10-31T14:19:25;101045.47;;;11.61;100.00
42297;BME280;28985;47.456;19.016;2022-10-31T14:21:53;101043.88;;;11.58;100.00
42297;BME280;28985;47.456;19.016;2022-10-31T14:26:57;101046.72;;;11.57;100.00
42297;BME280;28985;47.456;19.016;2022-10-31T14:29:31;101040.22;;;11.59;100.00
42297;BME280;28985;47.456;19.016;2022-10-31T14:34:41;101043.88;;;11.58;100.00